Time;durP1;ratioP1;P1;durP2;ratioP2;P2;SDS_P1;SDS_P2;PMS_P1;PMS_P2;Temp;Humidity;BMP_temperature;BMP_pressure;BME280_temperature;BME280_humidity;BME280_pressure;Samples;Min_cycle;Max_cycle;Signal;HPM_P1;HPM_P2
2021/01/21 00:02:03;;;;;;;0.00;0.00;;;11.10;99.90;;;;;;5012628;28;20456;-64
2021/01/21 00:04:29;;;;;;;0.00;0.00;;;11.10;99.90;;;;;;5012534;28;20445;-64
2021/01/21 00:06:56;;;;;;;0.00;0.00;;;11.10;99.90;;;;;;5012129;28;20419;-64
2021/01/21 00:09:22;;;;;;;0.00;0.00;;;11.10;99.90;;;;;;5011937;28;20484;-63
2021/01/21 00:11:48;;;;;;;0.00;0.00;;;11.10;99.90;;;;;;5012190;28;20855;-64
2021/01/21 00:14:14;;;;;;;0.00;0.00;;;11.10;99.90;;;;;;5012358;28;20441;-64
2021/01/21 00:16:40;;;;;;;0.00;0.00;;;11.10;99.90;;;;;;5011781;28;20553;-64
2021/01/21 00:19:07;;;;;;;0.00;0.00;;;11.20;99.90;;;;;;5012058;28;20430;-64
2021/01/21 00:21:33;;;;;;;0.00;0.00;;;11.20;99.90;;;;;;5015372;28;20468;-64
2021/01/21 00:23:59;;;;;;;0.00;0.00;;;11.10;99.90;;;;;;5016293;28;21063;-63
2021/01/21 00:26:26;;;;;;;0.00;0.00;;;11.10;99.90;;;;;;5016538;28;20443;-63
2021/01/21 00:28:52;;;;;;;0.00;0.00;;;11.10;99.90;;;;;;5016224;28;20873;-64
2021/01/21 00:31:18;;;;;;;0.00;0.00;;;11.10;99.90;;;;;;5017158;28;20479;-64
2021/01/21 00:33:44;;;;;;;0.00;0.00;;;11.10;99.90;;;;;;5016951;28;20451;-64
2021/01/21 00:36:13;;;;;;;0.00;0.00;;;11.00;99.90;;;;;;5016507;28;20824;-64
2021/01/21 00:38:39;;;;;;;0.00;0.00;;;10.90;99.90;;;;;;5015817;28;20525;-64
2021/01/21 00:41:05;;;;;;;0.00;0.00;;;10.90;99.90;;;;;;5016047;28;20863;-64
2021/01/21 00:43:32;;;;;;;0.00;0.00;;;10.80;99.90;;;;;;5016459;28;20443;-64
2021/01/21 00:45:58;;;;;;;0.00;0.00;;;10.90;99.90;;;;;;5015939;28;20441;-64
2021/01/21 00:48:24;;;;;;;0.00;0.00;;;10.80;99.90;;;;;;5016134;28;20479;-65
2021/01/21 00:50:50;;;;;;;0.00;0.00;;;10.80;99.90;;;;;;5015664;28;20491;-63
2021/01/21 00:53:17;;;;;;;0.00;0.00;;;10.80;99.90;;;;;;5015651;28;20462;-64
2021/01/21 00:55:43;;;;;;;0.00;0.00;;;10.70;99.90;;;;;;5015755;28;20506;-65
2021/01/21 00:58:09;;;;;;;0.00;0.00;;;10.70;99.90;;;;;;5015626;28;20929;-64
2021/01/21 01:00:36;;;;;;;0.00;0.00;;;10.70;99.90;;;;;;5015300;28;20453;-63
2021/01/21 01:03:02;;;;;;;0.00;0.00;;;10.60;99.90;;;;;;5015845;28;20527;-64
2021/01/21 01:05:28;;;;;;;0.00;0.00;;;10.60;99.90;;;;;;5016098;28;20825;-65
2021/01/21 01:07:54;;;;;;;0.00;0.00;;;10.60;99.90;;;;;;5015392;28;20478;-64
2021/01/21 01:10:22;;;;;;;0.00;0.00;;;10.60;99.90;;;;;;5015216;28;20523;-64
2021/01/21 01:12:48;;;;;;;0.00;0.00;;;10.60;99.90;;;;;;5015320;28;20444;-65
2021/01/21 01:15:15;;;;;;;0.00;0.00;;;10.60;99.90;;;;;;5015417;28;20446;-65
2021/01/21 01:17:41;;;;;;;0.00;0.00;;;10.70;99.90;;;;;;5015368;28;20453;-64
2021/01/21 01:20:08;;;;;;;0.00;0.00;;;10.70;99.90;;;;;;5014755;28;20462;-64
2021/01/21 01:22:34;;;;;;;0.00;0.00;;;10.70;99.90;;;;;;5014870;28;20810;-63
2021/01/21 01:25:00;;;;;;;0.00;0.00;;;10.70;99.90;;;;;;5015064;28;20808;-63
2021/01/21 01:27:27;;;;;;;0.00;0.00;;;10.70;99.90;;;;;;5015237;28;20445;-63
2021/01/21 01:29:53;;;;;;;0.00;0.00;;;10.80;99.90;;;;;;5014894;28;20453;-63
2021/01/21 01:32:20;;;;;;;0.00;0.00;;;10.70;99.90;;;;;;5013950;28;20954;-63
2021/01/21 01:34:46;;;;;;;0.00;0.00;;;10.70;99.90;;;;;;5014999;28;20475;-63
2021/01/21 01:37:12;;;;;;;0.00;0.00;;;10.70;99.90;;;;;;5015024;28;20449;-63
2021/01/21 01:39:38;;;;;;;0.00;0.00;;;10.70;99.90;;;;;;5014727;28;20452;-63
2021/01/21 01:42:08;;;;;;;0.00;0.00;;;10.70;99.90;;;;;;5014866;28;20501;-63
2021/01/21 01:44:36;;;;;;;0.00;0.00;;;10.70;99.90;;;;;;5015159;28;20571;-63
2021/01/21 01:47:02;;;;;;;0.00;0.00;;;10.70;99.90;;;;;;5014714;28;20937;-63
2021/01/21 01:49:29;;;;;;;0.00;0.00;;;10.70;99.90;;;;;;5014455;28;20477;-63
2021/01/21 01:51:55;;;;;;;0.00;0.00;;;10.70;99.90;;;;;;5014400;28;20459;-63
2021/01/21 01:54:21;;;;;;;0.00;0.00;;;10.70;99.90;;;;;;5014773;28;20472;-63
2021/01/21 01:56:48;;;;;;;0.00;0.00;;;10.70;99.90;;;;;;5014599;28;20933;-63
2021/01/21 01:59:14;;;;;;;0.00;0.00;;;10.70;99.90;;;;;;5014443;28;20481;-63
2021/01/21 02:01:42;;;;;;;0.00;0.00;;;10.70;99.90;;;;;;5014632;28;20800;-63
2021/01/21 02:04:09;;;;;;;0.00;0.00;;;10.70;99.90;;;;;;5014278;28;20436;-63
2021/01/21 02:06:35;;;;;;;0.00;0.00;;;10.80;99.90;;;;;;5015007;28;20445;-63
2021/01/21 02:09:01;;;;;;;0.00;0.00;;;10.70;99.90;;;;;;5014045;28;20486;-63
2021/01/21 02:11:46;;;;;;;0.00;0.00;;;10.70;99.90;;;;;;5014560;28;20488;-63
2021/01/21 02:14:17;;;;;;;0.00;0.00;;;10.80;99.90;;;;;;5014309;28;20669;-63
2021/01/21 02:17:02;;;;;;;0.00;0.00;;;10.80;99.90;;;;;;5014517;28;20450;-63
2021/01/21 02:20:22;;;;;;;0.00;0.00;;;10.70;99.90;;;;;;5013731;28;20443;-63
2021/01/21 02:23:20;;;;;;;0.00;0.00;;;10.70;99.90;;;;;;5014395;28;20440;-63
2021/01/21 02:25:52;;;;;;;0.00;0.00;;;10.80;99.90;;;;;;5013805;28;20444;-63
2021/01/21 02:28:49;;;;;;;0.00;0.00;;;10.80;99.90;;;;;;5014286;28;20893;-63
2021/01/21 02:31:27;;;;;;;0.00;0.00;;;10.70;99.90;;;;;;5013859;28;20469;-63
2021/01/21 02:33:56;;;;;;;0.00;0.00;;;10.80;99.90;;;;;;5014470;28;20442;-63
2021/01/21 02:36:26;;;;;;;0.00;0.00;;;10.90;99.90;;;;;;5013648;28;21255;-63
2021/01/21 02:38:53;;;;;;;0.00;0.00;;;10.90;99.90;;;;;;5013987;28;20395;-63
2021/01/21 02:41:20;;;;;;;0.00;0.00;;;10.90;99.90;;;;;;5013967;28;20551;-63
2021/01/21 02:43:51;;;;;;;0.00;0.00;;;11.00;99.90;;;;;;5013425;28;21013;-63
2021/01/21 02:46:17;;;;;;;0.00;0.00;;;10.90;99.90;;;;;;5013508;28;20452;-63
2021/01/21 02:48:43;;;;;;;0.00;0.00;;;10.90;99.90;;;;;;5013398;28;20488;-63
2021/01/21 02:51:18;;;;;;;0.00;0.00;;;10.90;99.90;;;;;;5013383;28;20878;-63
2021/01/21 02:53:52;;;;;;;0.00;0.00;;;10.90;99.90;;;;;;5013336;28;20580;-63
2021/01/21 02:56:21;;;;;;;0.00;0.00;;;10.90;99.90;;;;;;5015075;28;20441;-63
2021/01/21 02:58:50;;;;;;;0.00;0.00;;;11.00;99.90;;;;;;5013180;28;20487;-63
2021/01/21 03:01:17;;;;;;;0.00;0.00;;;11.10;99.90;;;;;;5013147;28;20515;-64
2021/01/21 03:03:46;;;;;;;0.00;0.00;;;11.20;99.90;;;;;;5013533;28;20457;-62
2021/01/21 03:06:14;;;;;;;0.00;0.00;;;11.30;99.90;;;;;;5013317;28;20813;-63
2021/01/21 03:08:40;;;;;;;0.00;0.00;;;11.40;99.90;;;;;;5013388;28;20973;-63
2021/01/21 03:11:08;;;;;;;0.00;0.00;;;11.40;99.90;;;;;;5012739;28;20825;-63
2021/01/21 03:13:34;;;;;;;0.00;0.00;;;11.50;99.90;;;;;;5013064;28;20440;-63
2021/01/21 03:16:00;;;;;;;;;;;11.40;99.90;;;;;;5013243;28;20262;-63
2021/01/21 03:18:26;;;;;;;;;;;11.40;99.90;;;;;;5013685;28;19928;-62
2021/01/21 03:20:52;;;;;;;;;;;11.40;99.90;;;;;;5013641;28;19925;-60
2021/01/21 03:23:19;;;;;;;;;;;11.40;99.90;;;;;;5013871;28;19925;-63
2021/01/21 03:25:45;;;;;;;;;;;11.40;99.90;;;;;;5014130;28;20412;-63
2021/01/21 03:28:11;;;;;;;;;;;11.40;99.90;;;;;;5013502;28;19922;-63
2021/01/21 03:30:37;;;;;;;;;;;11.40;99.90;;;;;;5013548;28;19925;-62
2021/01/21 03:33:03;;;;;;;;;;;11.40;99.90;;;;;;5013367;28;20401;-63
2021/01/21 03:35:29;;;;;;;;;;;11.40;99.90;;;;;;5013623;28;19922;-63
2021/01/21 03:37:55;;;;;;;;;;;11.50;99.90;;;;;;5013209;28;19928;-63
2021/01/21 03:40:22;;;;;;;;;;;11.40;99.90;;;;;;5012949;28;19925;-63
2021/01/21 03:42:48;;;;;;;;;;;11.50;99.90;;;;;;5013112;28;19921;-65
2021/01/21 03:45:14;;;;;;;;;;;11.60;99.90;;;;;;5013057;28;19987;-65
2021/01/21 03:47:40;;;;;;;;;;;11.50;99.90;;;;;;5013046;28;19921;-65
2021/01/21 03:50:06;;;;;;;;;;;11.50;99.90;;;;;;5012625;28;20289;-65
2021/01/21 03:52:32;;;;;;;;;;;11.50;99.90;;;;;;5012805;28;19932;-64
2021/01/21 03:54:58;;;;;;;;;;;11.50;99.90;;;;;;5012121;28;20020;-65
2021/01/21 03:57:25;;;;;;;;;;;11.50;99.90;;;;;;5012850;28;19951;-65
2021/01/21 03:59:51;;;;;;;;;;;11.50;99.90;;;;;;5012625;28;19921;-64
2021/01/21 04:02:17;;;;;;;;;;;11.40;99.90;;;;;;5012953;28;19921;-64
2021/01/21 04:04:43;;;;;;;;;;;11.50;99.90;;;;;;5013121;28;19921;-64
2021/01/21 04:07:09;;;;;;;;;;;11.40;99.90;;;;;;5012616;28;19944;-64
2021/01/21 04:09:36;;;;;;;;;;;11.50;99.90;;;;;;5012302;28;19928;-64
2021/01/21 04:12:02;;;;;;;;;;;11.40;99.90;;;;;;5012558;28;19975;-64
2021/01/21 04:14:29;;;;;;;;;;;11.40;99.90;;;;;;5012882;28;19921;-64
2021/01/21 04:16:55;;;;;;;;;;;11.50;99.90;;;;;;5013046;28;19921;-65
2021/01/21 04:19:21;;;;;;;;;;;11.50;99.90;;;;;;5012160;28;20306;-64
2021/01/21 04:21:47;;;;;;;;;;;11.50;99.90;;;;;;5012916;28;19929;-63
2021/01/21 04:24:13;;;;;;;;;;;11.50;99.90;;;;;;5012991;28;19971;-63
2021/01/21 04:26:39;;;;;;;;;;;11.50;99.90;;;;;;5012560;28;19922;-63
2021/01/21 04:29:05;;;;;;;;;;;11.60;99.90;;;;;;5012106;28;20340;-63
2021/01/21 04:31:32;;;;;;;;;;;11.60;99.90;;;;;;5012562;28;19929;-62
2021/01/21 04:33:58;;;;;;;;;;;11.50;99.90;;;;;;5012793;28;19975;-64
2021/01/21 04:36:24;;;;;;;;;;;11.60;99.90;;;;;;5013073;28;19928;-65
2021/01/21 04:38:50;;;;;;;;;;;11.60;99.90;;;;;;5013797;28;19925;-63
2021/01/21 04:41:16;;;;;;;;;;;11.60;99.90;;;;;;5013401;28;19921;-64
2021/01/21 04:43:42;;;;;;;;;;;11.50;99.90;;;;;;5014502;28;19921;-64
2021/01/21 04:46:09;;;;;;;;;;;11.60;99.90;;;;;;5014191;28;19944;-64
2021/01/21 04:48:36;;;;;;;;;;;11.60;99.90;;;;;;5013932;28;20404;-64
2021/01/21 04:51:02;;;;;;;;;;;11.60;99.90;;;;;;5013508;28;19988;-64
2021/01/21 04:53:28;;;;;;;;;;;11.50;99.90;;;;;;5013808;28;19929;-63
2021/01/21 04:55:56;;;;;;;;;;;11.60;99.90;;;;;;5014427;28;19921;-63
2021/01/21 04:58:25;;;;;;;;;;;11.60;99.90;;;;;;5014064;28;19953;-63
2021/01/21 05:00:52;;;;;;;;;;;11.60;99.90;;;;;;5014140;28;19968;-64
2021/01/21 05:03:19;;;;;;;;;;;11.60;99.90;;;;;;5014240;28;20401;-63
2021/01/21 05:05:45;;;;;;;;;;;11.60;99.90;;;;;;5013615;28;19922;-63
2021/01/21 05:08:11;;;;;;;;;;;11.60;99.90;;;;;;5015996;28;19968;-64
2021/01/21 05:10:38;;;;;;;;;;;11.60;99.90;;;;;;5015966;28;19926;-64
2021/01/21 05:13:04;;;;;;;;;;;11.60;99.90;;;;;;5016449;28;19956;-64
2021/01/21 05:15:30;;;;;;;;;;;11.60;99.90;;;;;;5016014;28;19929;-65
2021/01/21 05:17:56;;;;;;;;;;;11.70;99.90;;;;;;5016120;28;19929;-65
2021/01/21 05:20:23;;;;;;;;;;;11.70;99.90;;;;;;5015770;28;19926;-63
2021/01/21 05:22:54;;;;;;;;;;;11.70;99.90;;;;;;4992732;28;20018;-64
2021/01/21 05:25:20;;;;;;;;;;;11.70;99.90;;;;;;5012478;28;19961;-64
2021/01/21 05:27:47;;;;;;;;;;;11.60;99.90;;;;;;5008958;28;19921;-66
2021/01/21 05:30:14;;;;;;;;;;;11.60;99.90;;;;;;4994733;28;19948;-64
2021/01/21 05:32:40;;;;;;;;;;;11.60;99.90;;;;;;4995346;28;19928;-65
2021/01/21 05:35:07;;;;;;;;;;;11.60;99.90;;;;;;4995711;28;19964;-65
2021/01/21 05:37:37;;;;;;;;;;;11.60;99.90;;;;;;4995248;28;19972;-65
2021/01/21 05:40:06;;;;;;;;;;;11.50;99.90;;;;;;4995872;28;20382;-64
2021/01/21 05:42:35;;;;;;;;;;;11.30;99.90;;;;;;4995357;28;19922;-66
2021/01/21 05:45:01;;;;;;;;;;;11.00;99.90;;;;;;4995446;28;20294;-64
2021/01/21 05:47:27;;;;;;;;;;;10.30;99.90;;;;;;4995695;28;20322;-64
2021/01/21 05:49:53;;;;;;;;;;;8.50;99.90;;;;;;4994644;28;19922;-63
2021/01/21 05:52:20;;;;;;;;;;;7.80;1.00;;;;;;4995236;28;20389;-63
2021/01/21 05:54:47;;;;;;;;;;;7.40;1.00;;;;;;4994945;28;19928;-63
2021/01/21 05:57:14;;;;;;;;;;;7.20;1.00;;;;;;4995218;28;19926;-63
2021/01/21 05:59:40;;;;;;;;;;;7.00;1.00;;;;;;4994803;28;19922;-63
2021/01/21 06:02:06;;;;;;;;;;;6.80;99.90;;;;;;4995998;28;19922;-63
2021/01/21 06:04:34;;;;;;;;;;;6.70;99.90;;;;;;4995883;28;20309;-64
2021/01/21 06:07:00;;;;;;;;;;;6.50;45.50;;;;;;4995746;28;19921;-64
2021/01/21 06:09:26;;;;;;;;;;;6.40;27.40;;;;;;4995102;28;19925;-64
2021/01/21 06:11:53;;;;;;;;;;;6.20;99.90;;;;;;4995527;28;19926;-66
2021/01/21 06:14:24;;;;;;;;;;;5.90;1.00;;;;;;4995986;28;19945;-66
2021/01/21 06:16:50;;;;;;;;;;;5.70;1.00;;;;;;4994869;28;20008;-67
2021/01/21 06:19:16;;;;;;;;;;;5.60;99.90;;;;;;4993927;28;19925;-67
2021/01/21 06:21:47;;;;;;;;;;;5.60;99.90;;;;;;4995008;28;19925;-66
2021/01/21 06:24:14;;;;;;;;;;;5.50;8.70;;;;;;4993790;28;20393;-65
2021/01/21 06:26:42;;;;;;;;;;;5.50;99.90;;;;;;4994897;28;19921;-65
2021/01/21 06:29:10;;;;;;;;;;;5.50;99.90;;;;;;4994591;28;20024;-65
2021/01/21 06:31:37;;;;;;;;;;;5.50;1.00;;;;;;4994262;28;19929;-65
2021/01/21 06:34:05;;;;;;;;;;;5.50;1.00;;;;;;4994381;28;19944;-65
2021/01/21 06:36:33;;;;;;;;;;;5.40;1.00;;;;;;5006776;28;19921;-65
2021/01/21 06:39:01;;;;;;;;;;;5.50;1.00;;;;;;5015431;28;19921;-67
2021/01/21 06:41:28;;;;;;;;;;;5.40;1.00;;;;;;5014593;28;19928;-67
2021/01/21 06:43:55;;;;;;;;;;;5.50;1.00;;;;;;5014083;28;19922;-66
2021/01/21 06:46:21;;;;;;;;;;;5.40;99.90;;;;;;5013506;28;20352;-67
2021/01/21 06:48:48;;;;;;;;;;;5.40;99.90;;;;;;5014468;28;19968;-67
2021/01/21 06:51:22;;;;;;;;;;;5.40;10.30;;;;;;5018973;28;19925;-66
2021/01/21 06:53:51;;;;;;;;;;;5.40;99.90;;;;;;5013682;28;19925;-66
2021/01/21 06:56:17;;;;;;;;;;;5.40;99.90;;;;;;5014027;28;19921;-64
2021/01/21 06:58:44;;;;;;;;;;;5.30;87.80;;;;;;5013918;28;19921;-65
2021/01/21 07:01:37;;;;;;;;;;;5.30;99.90;;;;;;5013807;28;19928;-65
2021/01/21 07:04:20;;;;;;;;;;;5.30;99.90;;;;;;5013396;28;19951;-65
2021/01/21 07:07:03;;;;;;;;;;;5.30;99.90;;;;;;5013646;28;19925;-65
2021/01/21 07:09:32;;;;;;;;;;;5.20;99.90;;;;;;5013206;28;20301;-65
2021/01/21 07:11:59;;;;;;;;;;;5.20;99.90;;;;;;5013797;28;19932;-65
2021/01/21 07:14:26;;;;;;;;;;;5.20;99.90;;;;;;5014098;28;19928;-67
2021/01/21 07:16:54;;;;;;;;;;;5.20;99.90;;;;;;5014620;28;19929;-64
2021/01/21 07:19:28;;;;;;;;;;;5.20;99.90;;;;;;5014251;28;19928;-65
2021/01/21 07:21:55;;;;;;;;;;;5.10;99.90;;;;;;5013560;28;19928;-64
2021/01/21 07:24:21;;;;;;;;;;;5.10;1.00;;;;;;5013837;28;19949;-65
2021/01/21 07:26:50;;;;;;;;;;;5.10;1.00;;;;;;5013164;28;19948;-64
2021/01/21 07:29:17;;;;;;;;;;;5.20;1.00;;;;;;5012819;28;19928;-63
2021/01/21 07:32:04;;;;;;;;;;;5.20;1.00;;;;;;5012669;28;19925;-65
2021/01/21 07:34:37;;;;;;;;;;;5.20;1.00;;;;;;5013727;28;19928;-63
2021/01/21 07:37:27;;;;;;;;;;;5.20;1.00;;;;;;5013345;28;19972;-64
2021/01/21 07:40:02;;;;;;;;;;;5.10;1.00;;;;;;5014201;28;19943;-67
2021/01/21 07:42:43;;;;;;;;;;;5.20;1.00;;;;;;5013052;28;19922;-66
2021/01/21 07:45:14;;;;;;;;;;;5.20;1.00;;;;;;5014138;28;19968;-65
2021/01/21 07:47:41;;;;;;;;;;;5.30;99.90;;;;;;5013764;28;19922;-66
2021/01/21 07:50:29;;;;;;;;;;;5.30;99.90;;;;;;5012610;28;19922;-67
2021/01/21 07:52:55;;;;;;;;;;;5.30;90.10;;;;;;5013085;28;20015;-65
2021/01/21 07:55:24;;;;;;;;;;;5.30;7.90;;;;;;5012924;28;19925;-65
2021/01/21 07:57:50;;;;;;;;;;;5.20;1.00;;;;;;5013073;28;19921;-65
2021/01/21 08:00:17;;;;;;;;;;;5.20;38.40;;;;;;5013159;28;20141;-64
2021/01/21 08:02:43;;;;;;;;;;;5.30;31.30;;;;;;5013353;28;19926;-65
2021/01/21 08:05:09;;;;;;;;;;;5.30;97.50;;;;;;5013439;28;19944;-65
2021/01/21 08:07:46;;;;;;;;;;;5.30;1.00;;;;;;5012475;28;19921;-67
2021/01/21 08:10:13;;;;;;;;;;;5.30;1.00;;;;;;5012838;28;19984;-63
2021/01/21 08:12:39;;;;;;;;;;;5.20;1.00;;;;;;5013966;28;20346;-64
2021/01/21 08:15:06;;;;;;;;;;;5.20;1.00;;;;;;5013335;28;19948;-64
2021/01/21 08:17:32;;;;;;;;;;;5.20;99.90;;;;;;5012777;28;19929;-63
2021/01/21 08:19:58;;;;;;;;;;;5.20;99.90;;;;;;5012830;28;19940;-63
2021/01/21 08:22:24;;;;;;;;;;;5.20;99.90;;;;;;5013206;28;19968;-63
2021/01/21 08:25:00;;;;;;;;;;;5.20;99.90;;;;;;5013552;28;19975;-63
2021/01/21 08:27:41;;;;;;;;;;;5.10;99.90;;;;;;5013297;28;19921;-63
2021/01/21 08:30:17;;;;;;;;;;;5.10;99.90;;;;;;5013375;28;19976;-63
2021/01/21 08:32:44;;;;;;;;;;;5.10;99.90;;;;;;5013055;28;19925;-63
2021/01/21 08:35:11;;;;;;;;;;;5.10;99.90;;;;;;5012935;28;19921;-63
2021/01/21 08:37:38;;;;;;;;;;;5.10;93.20;;;;;;5013241;28;19925;-62
2021/01/21 08:40:06;;;;;;;;;;;5.10;99.90;;;;;;5013417;28;19952;-64
2021/01/21 08:42:32;;;;;;;;;;;5.20;88.00;;;;;;5015803;28;19975;-64
2021/01/21 08:44:58;;;;;;;;;;;5.30;1.00;;;;;;5016884;28;19921;-63
2021/01/21 08:47:24;;;;;;;;;;;5.40;1.00;;;;;;5016730;28;19925;-63
2021/01/21 08:49:51;;;;;;;;;;;5.40;1.00;;;;;;5016020;28;19921;-63
2021/01/21 08:52:17;;;;;;;;;;;5.50;99.90;;;;;;5016794;28;19952;-62
2021/01/21 08:54:51;;;;;;;;;;;5.50;99.90;;;;;;5016612;28;20361;-63
2021/01/21 08:57:20;;;;;;;;;;;5.60;99.90;;;;;;5017359;28;19922;-63
2021/01/21 08:59:46;;;;;;;;;;;5.70;99.90;;;;;;5017928;28;19925;-62
2021/01/21 09:02:12;;;;;;;;;;;5.70;99.90;;;;;;5018745;28;20082;-62
2021/01/21 09:04:41;;;;;;;;;;;5.80;99.90;;;;;;5017731;28;19976;-63
2021/01/21 09:07:08;;;;;;;;;;;5.90;99.90;;;;;;5016471;28;19921;-63
2021/01/21 09:09:35;;;;;;;;;;;5.90;99.90;;;;;;5016244;28;20437;-63
2021/01/21 09:12:19;;;;;;;;;;;6.00;89.20;;;;;;5015714;28;20370;-63
2021/01/21 09:15:00;;;;;;;;;;;6.00;33.00;;;;;;5016254;28;20020;-63
2021/01/21 09:17:26;;;;;;;;;;;6.10;10.80;;;;;;5016150;28;19921;-63
2021/01/21 09:19:52;;;;;;;;;;;6.10;2.20;;;;;;5015245;28;19925;-63
2021/01/21 09:22:22;;;;;;;;;;;6.20;35.10;;;;;;5017588;28;19929;-63
2021/01/21 09:24:55;;;;;;;;;;;6.30;1.00;;;;;;5015973;28;19925;-64
2021/01/21 09:27:22;;;;;;;;;;;6.30;23.40;;;;;;5016687;28;19929;-64
2021/01/21 09:29:50;;;;;;;;;;;6.40;1.00;;;;;;5015616;28;20060;-63
2021/01/21 09:32:17;;;;;;;;;;;6.40;1.00;;;;;;5014924;28;19922;-62
2021/01/21 09:34:59;;;;;;;;;;;6.50;1.00;;;;;;5015310;28;19926;-64
2021/01/21 09:37:26;;;;;;;;;;;6.50;1.00;;;;;;5015657;28;19921;-64
2021/01/21 09:39:52;;;;;;;;;;;6.50;1.00;;;;;;5015626;28;19952;-63
2021/01/21 09:42:18;;;;;;;;;;;6.60;1.00;;;;;;5020493;28;19922;-63
2021/01/21 09:44:44;;;;;;;;;;;6.60;1.00;;;;;;5015597;28;20341;-64
2021/01/21 09:47:10;;;;;;;;;;;6.70;1.00;;;;;;5014874;28;19967;-63
2021/01/21 09:49:37;;;;;;;;;;;6.70;1.00;;;;;;5015703;28;19926;-63
2021/01/21 09:52:05;;;;;;;;;;;6.70;1.00;;;;;;5015791;28;19948;-64
2021/01/21 09:54:31;;;;;;;;;;;6.70;1.00;;;;;;5014287;28;19921;-63
2021/01/21 09:56:57;;;;;;;;;;;6.80;1.00;;;;;;5015375;28;19929;-64
2021/01/21 09:59:23;;;;;;;;;;;6.90;1.00;;;;;;5014668;28;19921;-64
2021/01/21 10:01:49;;;;;;;;;;;7.00;1.00;;;;;;5015159;28;19921;-65
2021/01/21 10:04:15;;;;;;;;;;;7.00;1.00;;;;;;5015094;28;20464;-64
2021/01/21 10:06:42;;;;;;;;;;;7.00;1.00;;;;;;5014645;28;19975;-66
2021/01/21 10:09:08;;;;;;;;;;;7.10;1.00;;;;;;5014908;28;19944;-64
2021/01/21 10:11:35;;;;;;;;;;;7.10;1.00;;;;;;5014708;28;19928;-64
2021/01/21 10:14:01;;;;;;;;;;;7.20;1.00;;;;;;5014861;28;19925;-64
2021/01/21 10:16:27;;;;;;;;;;;7.30;1.00;;;;;;5014494;28;19921;-64
2021/01/21 10:18:53;;;;;;;;;;;7.30;1.00;;;;;;5014998;28;19929;-64
2021/01/21 10:21:19;;;;;;;;;;;7.30;1.00;;;;;;5015240;28;20012;-64
2021/01/21 10:23:46;;;;;;;;;;;7.40;1.00;;;;;;5013951;28;19933;-63
2021/01/21 10:26:12;;;;;;;;;;;7.40;1.00;;;;;;5014941;28;19921;-64
2021/01/21 10:28:39;;;;;;;;;;;7.30;1.00;;;;;;5014351;28;19921;-64
2021/01/21 10:31:05;;;;;;;;;;;7.30;1.00;;;;;;5013386;28;19925;-65
2021/01/21 10:33:31;;;;;;;;;;;7.30;1.00;;;;;;5013874;28;20429;-65
2021/01/21 10:35:57;;;;;;;;;;;7.20;1.00;;;;;;5014229;28;19925;-67
2021/01/21 10:38:23;;;;;;;;;;;7.20;1.00;;;;;;5014513;28;19936;-66
2021/01/21 10:40:49;;;;;;;;;;;7.30;1.00;;;;;;5013920;28;19921;-65
2021/01/21 10:43:16;;;;;;;;;;;7.20;1.00;;;;;;5014339;28;19928;-66
2021/01/21 10:45:42;;;;;;;;;;;7.20;1.00;;;;;;5013610;28;19944;-65
2021/01/21 10:48:09;;;;;;;;;;;7.30;1.00;;;;;;5014219;28;19944;-65
2021/01/21 10:50:34;;;;;;;;;;;7.20;1.00;;;;;;5013927;28;19976;-63
2021/01/21 10:53:00;;;;;;;;;;;7.30;1.00;;;;;;5013885;28;19921;-64
2021/01/21 10:55:26;;;;;;;;;;;7.30;1.00;;;;;;5013822;28;19922;-64
2021/01/21 10:57:54;;;;;;;;;;;7.30;1.00;;;;;;5013931;28;19925;-64
2021/01/21 11:00:20;;;;;;;;;;;7.20;1.00;;;;;;5013433;28;20003;-65
2021/01/21 11:02:46;;;;;;;;;;;7.30;1.00;;;;;;5013946;28;20020;-64
2021/01/21 11:05:13;;;;;;;;;;;7.30;1.00;;;;;;5013423;28;19926;-64
2021/01/21 11:07:39;;;;;;;;;;;7.40;1.00;;;;;;5013623;28;19975;-66
2021/01/21 11:10:06;;;;;;;;;;;7.40;1.00;;;;;;5013040;28;19921;-64
2021/01/21 11:12:32;;;;;;;;;;;7.40;1.00;;;;;;5013563;28;19928;-63
2021/01/21 11:14:58;;;;;;;;;;;7.40;1.00;;;;;;5013135;28;19921;-66
2021/01/21 11:17:26;;;;;;;;;;;7.40;1.00;;;;;;5013442;28;19922;-64
2021/01/21 11:19:52;;;;;;;;;;;7.40;1.00;;;;;;5013010;28;19926;-64
2021/01/21 11:22:18;;;;;;;;;;;7.40;1.00;;;;;;5013202;28;19975;-66
2021/01/21 11:24:44;;;;;;;;;;;7.40;1.00;;;;;;5013809;28;20365;-65
2021/01/21 11:27:10;;;;;;;;;;;7.40;1.00;;;;;;5013111;28;19921;-66
2021/01/21 11:29:36;;;;;;;;;;;7.40;1.00;;;;;;5012920;28;19921;-64
2021/01/21 11:32:03;;;;;;;;;;;7.50;1.00;;;;;;5013404;28;19921;-64
2021/01/21 11:34:29;;;;;;;;;;;7.50;1.00;;;;;;5013183;28;19921;-65
2021/01/21 11:36:55;;;;;;;;;;;7.50;1.00;;;;;;5013012;28;19976;-64
2021/01/21 11:39:21;;;;;;;;;;;7.50;1.00;;;;;;5013239;28;20333;-64
2021/01/21 11:41:47;;;;;;;;;;;7.50;1.00;;;;;;5012896;28;19921;-64
2021/01/21 11:44:13;;;;;;;;;;;7.60;1.00;;;;;;5013208;28;19933;-64
2021/01/21 11:46:39;;;;;;;;;;;7.60;1.00;;;;;;5014667;28;19929;-64
2021/01/21 11:49:06;;;;;;;;;;;7.60;1.00;;;;;;5013538;28;19922;-63
2021/01/21 11:51:32;;;;;;;;;;;7.60;1.00;;;;;;5012458;28;19930;-63
2021/01/21 11:53:58;;;;;;;;;;;7.60;1.00;;;;;;5013023;28;19925;-66
2021/01/21 11:56:24;;;;;;;;;;;7.60;1.00;;;;;;5012599;28;19968;-64
2021/01/21 11:58:50;;;;;;;;;;;7.60;1.00;;;;;;5012829;28;19944;-67
2021/01/21 12:01:16;;;;;;;;;;;7.60;1.00;;;;;;5012677;28;19926;-65
2021/01/21 12:03:42;;;;;;;;;;;7.60;1.00;;;;;;5012953;28;19921;-65
2021/01/21 12:06:09;;;;;;;;;;;7.60;1.00;;;;;;5012813;28;19928;-64
2021/01/21 12:08:35;;;;;;;;;;;7.60;1.00;;;;;;5012724;28;19922;-64
2021/01/21 12:11:01;;;;;;;;;;;7.50;1.00;;;;;;5015251;28;19929;-63
2021/01/21 12:13:27;;;;;;;;;;;7.50;1.00;;;;;;5012675;28;19999;-64
2021/01/21 12:15:53;;;;;;;;;;;7.50;1.00;;;;;;5011890;28;19933;-64
2021/01/21 12:18:19;;;;;;;;;;;7.50;1.00;;;;;;5013211;28;20386;-64
2021/01/21 12:20:45;;;;;;;;;;;7.50;1.00;;;;;;5012408;28;19928;-65
2021/01/21 12:23:13;;;;;;;;;;;7.50;1.00;;;;;;5012966;28;19987;-64
2021/01/21 12:25:39;;;;;;;;;;;7.50;1.00;;;;;;5012462;28;19989;-63
2021/01/21 12:28:05;;;;;;;;;;;7.50;1.00;;;;;;5012788;28;19987;-63
2021/01/21 12:30:31;;;;;;;;;;;7.50;1.00;;;;;;5012566;28;19921;-64
2021/01/21 12:32:57;;;;;;;;;;;7.50;1.00;;;;;;5017742;28;19973;-63
2021/01/21 12:35:23;;;;;;;;;;;7.50;1.00;;;;;;5012726;28;20302;-63
2021/01/21 12:37:50;;;;;;;;;;;7.60;1.00;;;;;;5012376;28;19921;-64
2021/01/21 12:40:17;;;;;;;;;;;7.60;1.00;;;;;;5012396;28;19922;-64
2021/01/21 12:42:43;;;;;;;;;;;7.70;1.00;;;;;;5012894;28;19921;-65
2021/01/21 12:45:09;;;;;;;;;;;7.80;1.00;;;;;;5012555;28;19976;-65
2021/01/21 12:47:35;;;;;;;;;;;7.80;1.00;;;;;;5012519;28;19922;-64
2021/01/21 12:50:01;;;;;;;;;;;7.80;1.00;;;;;;5012106;28;19932;-64
2021/01/21 12:52:27;;;;;;;;;;;7.80;99.90;;;;;;5012391;28;19925;-63
2021/01/21 12:54:54;;;;;;;;;;;7.80;1.00;;;;;;5012326;28;19925;-63
2021/01/21 12:57:21;;;;;;;;;;;7.80;99.90;;;;;;5012782;28;19926;-63
2021/01/21 12:59:48;;;;;;;;;;;7.90;99.90;;;;;;5012593;28;20297;-63
2021/01/21 13:02:14;;;;;;;;;;;7.80;99.90;;;;;;5012065;28;19932;-63
2021/01/21 13:04:40;;;;;;;;;;;7.80;99.90;;;;;;5012567;28;19972;-67
2021/01/21 13:07:06;;;;;;;;;;;7.80;1.00;;;;;;5011962;28;19922;-63
2021/01/21 13:09:33;;;;;;;;;;;7.80;99.90;;;;;;5012592;28;19932;-64
2021/01/21 13:11:59;;;;;;;;;;;7.80;99.90;;;;;;5012580;28;19925;-64
2021/01/21 13:14:26;;;;;;;;;;;7.80;99.90;;;;;;5012880;28;19921;-65
2021/01/21 13:16:52;;;;;;;;;;;7.90;99.90;;;;;;5012330;28;19975;-64
2021/01/21 13:19:18;;;;;;;;;;;7.90;99.90;;;;;;5012048;28;19921;-63
2021/01/21 13:21:44;;;;;;;;;;;7.90;1.00;;;;;;5011773;28;19925;-63
2021/01/21 13:24:10;;;;;;;;;;;7.90;99.90;;;;;;5011841;28;19930;-62
2021/01/21 13:26:36;;;;;;;;;;;8.00;99.90;;;;;;5011426;28;19945;-65
2021/01/21 13:29:02;;;;;;;;;;;8.00;1.00;;;;;;5014397;28;19925;-63
2021/01/21 13:31:29;;;;;;;;;;;8.00;99.90;;;;;;5015592;28;20445;-64
2021/01/21 13:33:55;;;;;;;;;;;8.00;99.90;;;;;;5015267;28;19929;-63
2021/01/21 13:36:21;;;;;;;;;;;8.00;99.90;;;;;;5015225;28;20310;-64
2021/01/21 13:38:47;;;;;;;;;;;8.00;99.90;;;;;;5015115;28;19921;-64
2021/01/21 13:41:13;;;;;;;;;;;8.00;99.90;;;;;;5015020;28;19925;-64
2021/01/21 13:43:39;;;;;;;;;;;8.10;99.90;;;;;;5015274;28;19921;-64
2021/01/21 13:46:05;;;;;;;;;;;8.10;99.90;;;;;;5017038;28;19921;-66
2021/01/21 13:48:32;;;;;;;;;;;8.10;99.90;;;;;;5016038;28;19925;-66
2021/01/21 13:50:58;;;;;;;;;;;8.10;99.90;;;;;;5015216;28;20268;-65
2021/01/21 13:53:25;;;;;;;;;;;8.10;99.90;;;;;;5015523;28;19921;-67
2021/01/21 13:55:51;;;;;;;;;;;8.00;99.90;;;;;;5014784;28;19921;-67
2021/01/21 13:58:17;;;;;;;;;;;8.00;99.90;;;;;;5015444;28;19922;-65
2021/01/21 14:00:43;;;;;;;;;;;8.00;99.90;;;;;;5014841;28;20412;-65
2021/01/21 14:03:09;;;;;;;;;;;8.00;99.90;;;;;;5015182;28;19921;-67
2021/01/21 14:05:35;;;;;;;;;;;7.90;99.90;;;;;;5015534;28;19922;-65
2021/01/21 14:08:01;;;;;;;;;;;8.00;99.90;;;;;;5014865;28;19937;-66
2021/01/21 14:10:27;;;;;;;;;;;7.90;99.90;;;;;;5014659;28;19922;-66